sensor_id;sensor_type;location;lat;lon;timestamp;temperature;humidity
4564;DHT22;2294;51.818;8.484;2022-07-29T00:00:13;18.20;99.90
4564;DHT22;2294;51.818;8.484;2022-07-29T00:02:40;18.30;99.90
4564;DHT22;2294;51.818;8.484;2022-07-29T00:05:08;18.40;99.90
4564;DHT22;2294;51.818;8.484;2022-07-29T00:07:35;18.30;99.90
4564;DHT22;2294;51.818;8.484;2022-07-29T00:10:03;18.30;99.90
4564;DHT22;2294;51.818;8.484;2022-07-29T00:12:31;18.30;99.90
4564;DHT22;2294;51.818;8.484;2022-07-29T00:14:58;18.30;99.90
4564;DHT22;2294;51.818;8.484;2022-07-29T00:17:25;18.30;99.90
4564;DHT22;2294;51.818;8.484;2022-07-29T00:19:52;18.20;99.90
4564;DHT22;2294;51.818;8.484;2022-07-29T00:22:20;18.20;99.90
4564;DHT22;2294;51.818;8.484;2022-07-29T00:24:47;18.10;99.90
4564;DHT22;2294;51.818;8.484;2022-07-29T00:27:15;18.10;99.90
4564;DHT22;2294;51.818;8.484;2022-07-29T00:29:43;18.10;99.90
4564;DHT22;2294;51.818;8.484;2022-07-29T00:32:10;18.00;99.90
4564;DHT22;2294;51.818;8.484;2022-07-29T00:34:37;18.00;99.90
4564;DHT22;2294;51.818;8.484;2022-07-29T00:37:21;18.00;99.90
4564;DHT22;2294;51.818;8.484;2022-07-29T00:39:48;18.10;99.90
4564;DHT22;2294;51.818;8.484;2022-07-29T00:42:15;18.10;99.90
4564;DHT22;2294;51.818;8.484;2022-07-29T00:44:44;18.00;99.90
4564;DHT22;2294;51.818;8.484;2022-07-29T00:47:11;17.80;99.90
4564;DHT22;2294;51.818;8.484;2022-07-29T00:49:39;17.90;99.90
4564;DHT22;2294;51.818;8.484;2022-07-29T00:52:07;18.00;99.90
4564;DHT22;2294;51.818;8.484;2022-07-29T00:54:35;18.00;99.90
4564;DHT22;2294;51.818;8.484;2022-07-29T00:57:02;17.90;99.90
4564;DHT22;2294;51.818;8.484;2022-07-29T00:59:29;17.90;99.90
4564;DHT22;2294;51.818;8.484;2022-07-29T01:01:57;17.70;99.90
4564;DHT22;2294;51.818;8.484;2022-07-29T01:04:24;17.60;99.90
4564;DHT22;2294;51.818;8.484;2022-07-29T01:06:53;17.60;99.90
4564;DHT22;2294;51.818;8.484;2022-07-29T01:09:21;17.60;99.90
4564;DHT22;2294;51.818;8.484;2022-07-29T01:11:49;17.60;99.90
4564;DHT22;2294;51.818;8.484;2022-07-29T01:14:16;17.60;99.90
4564;DHT22;2294;51.818;8.484;2022-07-29T01:16:48;17.50;99.90
4564;DHT22;2294;51.818;8.484;2022-07-29T01:19:36;17.50;99.90
4564;DHT22;2294;51.818;8.484;2022-07-29T01:22:17;17.40;99.90
4564;DHT22;2294;51.818;8.484;2022-07-29T01:25:08;17.40;99.90
4564;DHT22;2294;51.818;8.484;2022-07-29T01:27:48;17.40;99.90
4564;DHT22;2294;51.818;8.484;2022-07-29T01:30:19;17.40;99.90
4564;DHT22;2294;51.818;8.484;2022-07-29T01:32:50;17.30;99.90
4564;DHT22;2294;51.818;8.484;2022-07-29T01:35:23;17.30;99.90
4564;DHT22;2294;51.818;8.484;2022-07-29T01:37:55;17.50;99.90
4564;DHT22;2294;51.818;8.484;2022-07-29T01:40:27;17.40;99.90
4564;DHT22;2294;51.818;8.484;2022-07-29T01:42:57;17.50;99.90
4564;DHT22;2294;51.818;8.484;2022-07-29T01:45:29;17.40;99.90
4564;DHT22;2294;51.818;8.484;2022-07-29T01:48:02;17.40;99.90
4564;DHT22;2294;51.818;8.484;2022-07-29T01:50:34;17.40;99.90
4564;DHT22;2294;51.818;8.484;2022-07-29T01:53:04;17.40;99.90
4564;DHT22;2294;51.818;8.484;2022-07-29T01:55:36;17.60;99.90
4564;DHT22;2294;51.818;8.484;2022-07-29T01:58:05;17.70;99.90
4564;DHT22;2294;51.818;8.484;2022-07-29T02:00:35;17.60;99.90
4564;DHT22;2294;51.818;8.484;2022-07-29T02:03:05;17.50;99.90
4564;DHT22;2294;51.818;8.484;2022-07-29T02:05:35;17.30;99.90
4564;DHT22;2294;51.818;8.484;2022-07-29T02:08:04;17.40;99.90
4564;DHT22;2294;51.818;8.484;2022-07-29T02:10:33;17.40;99.90
4564;DHT22;2294;51.818;8.484;2022-07-29T02:13:02;17.40;99.90
4564;DHT22;2294;51.818;8.484;2022-07-29T02:15:32;17.40;99.90
4564;DHT22;2294;51.818;8.484;2022-07-29T02:18:03;17.30;99.90
4564;DHT22;2294;51.818;8.484;2022-07-29T02:20:31;17.20;99.90
4564;DHT22;2294;51.818;8.484;2022-07-29T02:22:59;17.30;99.90
4564;DHT22;2294;51.818;8.484;2022-07-29T02:25:26;17.30;99.90
4564;DHT22;2294;51.818;8.484;2022-07-29T02:27:54;17.20;99.90
4564;DHT22;2294;51.818;8.484;2022-07-29T02:30:22;17.20;99.90
4564;DHT22;2294;51.818;8.484;2022-07-29T02:32:51;17.30;99.90
4564;DHT22;2294;51.818;8.484;2022-07-29T02:35:20;17.30;99.90
4564;DHT22;2294;51.818;8.484;2022-07-29T02:37:48;17.30;99.90
4564;DHT22;2294;51.818;8.484;2022-07-29T02:40:31;17.30;99.90
4564;DHT22;2294;51.818;8.484;2022-07-29T02:42:59;17.30;99.90
4564;DHT22;2294;51.818;8.484;2022-07-29T02:45:27;17.30;99.90
4564;DHT22;2294;51.818;8.484;2022-07-29T02:47:56;17.30;99.90
4564;DHT22;2294;51.818;8.484;2022-07-29T02:50:31;17.30;99.90
4564;DHT22;2294;51.818;8.484;2022-07-29T02:53:08;17.20;99.90
4564;DHT22;2294;51.818;8.484;2022-07-29T02:55:40;17.10;99.90
4564;DHT22;2294;51.818;8.484;2022-07-29T02:58:14;17.20;99.90
4564;DHT22;2294;51.818;8.484;2022-07-29T03:00:43;17.30;99.90
4564;DHT22;2294;51.818;8.484;2022-07-29T03:03:14;17.30;99.90
4564;DHT22;2294;51.818;8.484;2022-07-29T03:05:43;17.30;99.90
4564;DHT22;2294;51.818;8.484;2022-07-29T03:08:11;17.20;99.90
4564;DHT22;2294;51.818;8.484;2022-07-29T03:10:42;17.20;99.90
4564;DHT22;2294;51.818;8.484;2022-07-29T03:13:10;17.10;99.90
4564;DHT22;2294;51.818;8.484;2022-07-29T03:15:38;17.00;99.90
4564;DHT22;2294;51.818;8.484;2022-07-29T03:18:05;17.00;99.90
4564;DHT22;2294;51.818;8.484;2022-07-29T03:20:33;17.10;99.90
4564;DHT22;2294;51.818;8.484;2022-07-29T03:23:02;17.00;99.90
4564;DHT22;2294;51.818;8.484;2022-07-29T03:25:30;17.00;99.90
4564;DHT22;2294;51.818;8.484;2022-07-29T03:27:57;16.90;99.90
4564;DHT22;2294;51.818;8.484;2022-07-29T03:30:24;16.80;99.90
4564;DHT22;2294;51.818;8.484;2022-07-29T03:32:51;16.70;99.90
4564;DHT22;2294;51.818;8.484;2022-07-29T03:35:18;16.70;99.90
4564;DHT22;2294;51.818;8.484;2022-07-29T03:37:46;16.80;99.90
4564;DHT22;2294;51.818;8.484;2022-07-29T03:40:18;16.90;99.90
4564;DHT22;2294;51.818;8.484;2022-07-29T03:42:47;16.90;99.90
4564;DHT22;2294;51.818;8.484;2022-07-29T03:45:17;16.80;99.90
4564;DHT22;2294;51.818;8.484;2022-07-29T03:47:48;16.80;99.90
4564;DHT22;2294;51.818;8.484;2022-07-29T03:50:16;16.80;99.90
4564;DHT22;2294;51.818;8.484;2022-07-29T03:52:45;16.80;99.90
4564;DHT22;2294;51.818;8.484;2022-07-29T03:55:14;16.80;99.90
4564;DHT22;2294;51.818;8.484;2022-07-29T03:57:42;16.80;99.90
4564;DHT22;2294;51.818;8.484;2022-07-29T04:00:11;16.80;99.90
4564;DHT22;2294;51.818;8.484;2022-07-29T04:02:38;16.70;99.90
4564;DHT22;2294;51.818;8.484;2022-07-29T04:05:11;16.70;99.90
4564;DHT22;2294;51.818;8.484;2022-07-29T04:07:38;16.80;99.90
4564;DHT22;2294;51.818;8.484;2022-07-29T04:10:06;16.70;99.90
4564;DHT22;2294;51.818;8.484;2022-07-29T04:12:35;16.70;99.90
4564;DHT22;2294;51.818;8.484;2022-07-29T04:15:02;16.60;99.90
4564;DHT22;2294;51.818;8.484;2022-07-29T04:17:29;16.60;99.90
4564;DHT22;2294;51.818;8.484;2022-07-29T04:19:56;16.60;99.90
4564;DHT22;2294;51.818;8.484;2022-07-29T04:22:23;16.80;99.90
4564;DHT22;2294;51.818;8.484;2022-07-29T04:24:50;16.70;99.90
4564;DHT22;2294;51.818;8.484;2022-07-29T04:27:17;16.70;99.90
4564;DHT22;2294;51.818;8.484;2022-07-29T04:29:45;16.90;99.90
4564;DHT22;2294;51.818;8.484;2022-07-29T04:32:12;16.80;99.90
4564;DHT22;2294;51.818;8.484;2022-07-29T04:34:39;16.80;99.90
4564;DHT22;2294;51.818;8.484;2022-07-29T04:37:06;16.80;99.90
4564;DHT22;2294;51.818;8.484;2022-07-29T04:39:33;16.80;99.90
4564;DHT22;2294;51.818;8.484;2022-07-29T04:42:00;16.80;99.90
4564;DHT22;2294;51.818;8.484;2022-07-29T04:44:27;17.00;99.90
4564;DHT22;2294;51.818;8.484;2022-07-29T04:46:56;17.00;99.90
4564;DHT22;2294;51.818;8.484;2022-07-29T04:49:23;17.00;99.90
4564;DHT22;2294;51.818;8.484;2022-07-29T04:51:50;17.20;99.90
4564;DHT22;2294;51.818;8.484;2022-07-29T04:54:17;17.30;99.90
4564;DHT22;2294;51.818;8.484;2022-07-29T04:56:44;17.20;99.90
4564;DHT22;2294;51.818;8.484;2022-07-29T04:59:11;17.20;99.90
4564;DHT22;2294;51.818;8.484;2022-07-29T05:01:38;17.40;99.90
4564;DHT22;2294;51.818;8.484;2022-07-29T05:04:07;17.40;99.90
4564;DHT22;2294;51.818;8.484;2022-07-29T05:06:33;17.60;99.90
4564;DHT22;2294;51.818;8.484;2022-07-29T05:09:00;17.70;99.90
4564;DHT22;2294;51.818;8.484;2022-07-29T05:11:27;17.70;99.90
4564;DHT22;2294;51.818;8.484;2022-07-29T05:13:54;17.80;99.90
4564;DHT22;2294;51.818;8.484;2022-07-29T05:16:21;17.80;99.90
4564;DHT22;2294;51.818;8.484;2022-07-29T05:18:48;17.90;99.90
4564;DHT22;2294;51.818;8.484;2022-07-29T05:21:16;17.90;99.90
4564;DHT22;2294;51.818;8.484;2022-07-29T05:23:43;18.00;99.90
4564;DHT22;2294;51.818;8.484;2022-07-29T05:26:10;18.00;99.90
4564;DHT22;2294;51.818;8.484;2022-07-29T05:28:37;18.00;99.90
4564;DHT22;2294;51.818;8.484;2022-07-29T05:31:04;18.10;99.90
4564;DHT22;2294;51.818;8.484;2022-07-29T05:33:31;18.20;99.90
4564;DHT22;2294;51.818;8.484;2022-07-29T05:35:58;18.30;99.90
4564;DHT22;2294;51.818;8.484;2022-07-29T05:38:26;18.30;99.90
4564;DHT22;2294;51.818;8.484;2022-07-29T05:40:56;18.30;99.90
4564;DHT22;2294;51.818;8.484;2022-07-29T05:43:23;18.40;99.90
4564;DHT22;2294;51.818;8.484;2022-07-29T05:45:50;18.40;99.90
4564;DHT22;2294;51.818;8.484;2022-07-29T05:48:17;18.60;99.90
4564;DHT22;2294;51.818;8.484;2022-07-29T05:50:44;18.60;99.90
4564;DHT22;2294;51.818;8.484;2022-07-29T05:53:11;18.60;99.90
4564;DHT22;2294;51.818;8.484;2022-07-29T05:55:39;18.60;99.90
4564;DHT22;2294;51.818;8.484;2022-07-29T05:58:06;18.80;99.90
4564;DHT22;2294;51.818;8.484;2022-07-29T06:00:33;18.80;99.90
4564;DHT22;2294;51.818;8.484;2022-07-29T06:03:00;18.80;99.90
4564;DHT22;2294;51.818;8.484;2022-07-29T06:05:27;18.90;99.90
4564;DHT22;2294;51.818;8.484;2022-07-29T06:07:54;19.00;99.90
4564;DHT22;2294;51.818;8.484;2022-07-29T06:10:21;19.10;99.90
4564;DHT22;2294;51.818;8.484;2022-07-29T06:12:49;19.20;99.90
4564;DHT22;2294;51.818;8.484;2022-07-29T06:15:16;19.20;99.90
4564;DHT22;2294;51.818;8.484;2022-07-29T06:17:43;19.20;99.90
4564;DHT22;2294;51.818;8.484;2022-07-29T06:20:10;19.30;99.90
4564;DHT22;2294;51.818;8.484;2022-07-29T06:22:37;19.40;99.90
4564;DHT22;2294;51.818;8.484;2022-07-29T06:25:05;19.40;99.90
4564;DHT22;2294;51.818;8.484;2022-07-29T06:27:32;19.40;99.90
4564;DHT22;2294;51.818;8.484;2022-07-29T06:30:00;19.30;99.90
4564;DHT22;2294;51.818;8.484;2022-07-29T06:32:28;19.30;99.90
4564;DHT22;2294;51.818;8.484;2022-07-29T06:34:56;19.30;99.90
4564;DHT22;2294;51.818;8.484;2022-07-29T06:37:23;19.30;99.90
4564;DHT22;2294;51.818;8.484;2022-07-29T06:39:50;19.40;99.90
4564;DHT22;2294;51.818;8.484;2022-07-29T06:42:37;19.40;99.90
4564;DHT22;2294;51.818;8.484;2022-07-29T06:45:10;19.60;99.90
4564;DHT22;2294;51.818;8.484;2022-07-29T06:47:37;19.70;99.90
4564;DHT22;2294;51.818;8.484;2022-07-29T06:50:05;19.80;99.90
4564;DHT22;2294;51.818;8.484;2022-07-29T06:52:32;19.80;99.90
4564;DHT22;2294;51.818;8.484;2022-07-29T06:54:59;20.00;99.90
4564;DHT22;2294;51.818;8.484;2022-07-29T06:57:26;20.20;99.90
4564;DHT22;2294;51.818;8.484;2022-07-29T06:59:53;20.30;99.90
4564;DHT22;2294;51.818;8.484;2022-07-29T07:02:21;20.60;99.90
4564;DHT22;2294;51.818;8.484;2022-07-29T07:04:48;20.70;99.90
4564;DHT22;2294;51.818;8.484;2022-07-29T07:07:15;20.50;99.90
4564;DHT22;2294;51.818;8.484;2022-07-29T07:09:42;20.30;99.90
4564;DHT22;2294;51.818;8.484;2022-07-29T07:12:09;20.40;99.90
4564;DHT22;2294;51.818;8.484;2022-07-29T07:14:36;20.40;99.90
4564;DHT22;2294;51.818;8.484;2022-07-29T07:17:03;20.50;99.90
4564;DHT22;2294;51.818;8.484;2022-07-29T07:19:33;20.60;99.90
4564;DHT22;2294;51.818;8.484;2022-07-29T07:22:00;20.60;99.90
4564;DHT22;2294;51.818;8.484;2022-07-29T07:24:27;20.80;99.90
4564;DHT22;2294;51.818;8.484;2022-07-29T07:26:55;20.90;99.90
4564;DHT22;2294;51.818;8.484;2022-07-29T07:29:22;21.00;99.90
4564;DHT22;2294;51.818;8.484;2022-07-29T07:31:49;21.10;99.90
4564;DHT22;2294;51.818;8.484;2022-07-29T07:34:16;21.90;99.90
4564;DHT22;2294;51.818;8.484;2022-07-29T07:36:44;21.20;99.90
4564;DHT22;2294;51.818;8.484;2022-07-29T07:39:11;21.10;99.90
4564;DHT22;2294;51.818;8.484;2022-07-29T07:41:38;21.00;99.90
4564;DHT22;2294;51.818;8.484;2022-07-29T07:44:05;21.00;99.90
4564;DHT22;2294;51.818;8.484;2022-07-29T07:46:32;20.90;99.90
4564;DHT22;2294;51.818;8.484;2022-07-29T07:48:59;20.90;99.90
4564;DHT22;2294;51.818;8.484;2022-07-29T07:51:25;21.00;99.90
4564;DHT22;2294;51.818;8.484;2022-07-29T07:53:54;21.00;99.90
4564;DHT22;2294;51.818;8.484;2022-07-29T07:56:21;20.80;99.90
4564;DHT22;2294;51.818;8.484;2022-07-29T07:58:48;20.90;99.90
4564;DHT22;2294;51.818;8.484;2022-07-29T08:01:16;20.90;99.90
4564;DHT22;2294;51.818;8.484;2022-07-29T08:03:44;21.10;99.90
4564;DHT22;2294;51.818;8.484;2022-07-29T08:06:11;21.20;99.90
4564;DHT22;2294;51.818;8.484;2022-07-29T08:08:38;21.20;99.90
4564;DHT22;2294;51.818;8.484;2022-07-29T08:11:06;21.00;99.90
4564;DHT22;2294;51.818;8.484;2022-07-29T08:13:33;21.30;99.90
4564;DHT22;2294;51.818;8.484;2022-07-29T08:16:00;21.40;99.90
4564;DHT22;2294;51.818;8.484;2022-07-29T08:18:28;21.60;99.90
4564;DHT22;2294;51.818;8.484;2022-07-29T08:20:55;21.70;99.90
4564;DHT22;2294;51.818;8.484;2022-07-29T08:23:22;21.80;99.90
4564;DHT22;2294;51.818;8.484;2022-07-29T08:25:50;21.60;99.90
4564;DHT22;2294;51.818;8.484;2022-07-29T08:28:18;21.50;99.90
4564;DHT22;2294;51.818;8.484;2022-07-29T08:30:45;21.80;99.90
4564;DHT22;2294;51.818;8.484;2022-07-29T08:33:12;22.10;99.90
4564;DHT22;2294;51.818;8.484;2022-07-29T08:35:39;22.30;99.90
4564;DHT22;2294;51.818;8.484;2022-07-29T08:38:06;22.40;99.90
4564;DHT22;2294;51.818;8.484;2022-07-29T08:40:33;22.40;99.90
4564;DHT22;2294;51.818;8.484;2022-07-29T08:43:04;22.40;99.90
4564;DHT22;2294;51.818;8.484;2022-07-29T08:45:41;22.40;99.90
4564;DHT22;2294;51.818;8.484;2022-07-29T08:48:08;22.60;99.90
4564;DHT22;2294;51.818;8.484;2022-07-29T08:50:35;22.90;99.90
4564;DHT22;2294;51.818;8.484;2022-07-29T08:53:03;22.90;99.90
4564;DHT22;2294;51.818;8.484;2022-07-29T08:55:31;22.80;99.90
4564;DHT22;2294;51.818;8.484;2022-07-29T08:58:00;22.40;99.90
4564;DHT22;2294;51.818;8.484;2022-07-29T09:00:27;22.10;99.90
4564;DHT22;2294;51.818;8.484;2022-07-29T09:02:57;22.30;99.90
4564;DHT22;2294;51.818;8.484;2022-07-29T09:05:26;22.30;99.90
4564;DHT22;2294;51.818;8.484;2022-07-29T09:07:53;22.40;99.90
4564;DHT22;2294;51.818;8.484;2022-07-29T09:10:21;22.80;99.90
4564;DHT22;2294;51.818;8.484;2022-07-29T09:12:48;22.60;99.90
4564;DHT22;2294;51.818;8.484;2022-07-29T09:15:15;22.80;99.90
4564;DHT22;2294;51.818;8.484;2022-07-29T09:17:45;22.80;99.90
4564;DHT22;2294;51.818;8.484;2022-07-29T09:20:15;22.50;99.90
4564;DHT22;2294;51.818;8.484;2022-07-29T09:22:42;22.40;99.90
4564;DHT22;2294;51.818;8.484;2022-07-29T09:25:12;22.50;99.90
4564;DHT22;2294;51.818;8.484;2022-07-29T09:27:39;22.30;99.90
4564;DHT22;2294;51.818;8.484;2022-07-29T09:30:08;22.10;99.90
4564;DHT22;2294;51.818;8.484;2022-07-29T09:32:55;22.30;99.90
4564;DHT22;2294;51.818;8.484;2022-07-29T09:35:25;22.40;99.90
4564;DHT22;2294;51.818;8.484;2022-07-29T09:37:52;22.30;99.90
4564;DHT22;2294;51.818;8.484;2022-07-29T09:40:20;22.60;99.90
4564;DHT22;2294;51.818;8.484;2022-07-29T09:42:48;22.80;99.90
4564;DHT22;2294;51.818;8.484;2022-07-29T09:45:28;23.00;99.90
4564;DHT22;2294;51.818;8.484;2022-07-29T09:47:56;23.30;99.90
4564;DHT22;2294;51.818;8.484;2022-07-29T09:50:37;23.50;99.90
4564;DHT22;2294;51.818;8.484;2022-07-29T09:53:04;24.00;99.90
4564;DHT22;2294;51.818;8.484;2022-07-29T09:55:31;24.10;99.90
4564;DHT22;2294;51.818;8.484;2022-07-29T09:58:16;23.80;99.90
4564;DHT22;2294;51.818;8.484;2022-07-29T10:00:43;23.70;99.90
4564;DHT22;2294;51.818;8.484;2022-07-29T10:03:11;23.90;99.90
4564;DHT22;2294;51.818;8.484;2022-07-29T10:05:39;23.60;99.90
4564;DHT22;2294;51.818;8.484;2022-07-29T10:08:08;23.50;99.90
4564;DHT22;2294;51.818;8.484;2022-07-29T10:10:36;23.40;99.90
4564;DHT22;2294;51.818;8.484;2022-07-29T10:13:05;23.10;99.90
4564;DHT22;2294;51.818;8.484;2022-07-29T10:15:34;22.80;99.90
4564;DHT22;2294;51.818;8.484;2022-07-29T10:18:03;22.70;99.90
4564;DHT22;2294;51.818;8.484;2022-07-29T10:20:30;22.80;99.90
4564;DHT22;2294;51.818;8.484;2022-07-29T10:22:59;22.80;99.90
4564;DHT22;2294;51.818;8.484;2022-07-29T10:25:26;23.10;99.90
4564;DHT22;2294;51.818;8.484;2022-07-29T10:27:54;23.50;99.90
4564;DHT22;2294;51.818;8.484;2022-07-29T10:30:23;23.80;99.90
4564;DHT22;2294;51.818;8.484;2022-07-29T10:33:07;24.20;99.90
4564;DHT22;2294;51.818;8.484;2022-07-29T10:35:44;24.60;99.90
4564;DHT22;2294;51.818;8.484;2022-07-29T10:38:44;24.60;99.90
4564;DHT22;2294;51.818;8.484;2022-07-29T10:41:24;24.60;99.90
4564;DHT22;2294;51.818;8.484;2022-07-29T10:43:59;24.90;99.90
4564;DHT22;2294;51.818;8.484;2022-07-29T10:46:27;24.90;99.90
4564;DHT22;2294;51.818;8.484;2022-07-29T10:49:05;24.60;99.90
4564;DHT22;2294;51.818;8.484;2022-07-29T10:51:57;24.40;99.90
4564;DHT22;2294;51.818;8.484;2022-07-29T10:54:43;24.50;99.90
4564;DHT22;2294;51.818;8.484;2022-07-29T10:57:12;23.60;99.90
4564;DHT22;2294;51.818;8.484;2022-07-29T10:59:39;23.50;99.90
4564;DHT22;2294;51.818;8.484;2022-07-29T11:05:08;23.70;99.90
4564;DHT22;2294;51.818;8.484;2022-07-29T11:07:37;23.70;99.90
4564;DHT22;2294;51.818;8.484;2022-07-29T11:10:22;23.60;99.90
4564;DHT22;2294;51.818;8.484;2022-07-29T11:12:50;24.30;99.90
4564;DHT22;2294;51.818;8.484;2022-07-29T11:15:19;24.30;99.90
4564;DHT22;2294;51.818;8.484;2022-07-29T11:18:04;24.20;99.90
4564;DHT22;2294;51.818;8.484;2022-07-29T11:20:32;24.20;99.90
4564;DHT22;2294;51.818;8.484;2022-07-29T11:23:00;24.30;99.90
4564;DHT22;2294;51.818;8.484;2022-07-29T11:25:28;23.60;99.90
4564;DHT22;2294;51.818;8.484;2022-07-29T11:28:10;24.00;99.90
4564;DHT22;2294;51.818;8.484;2022-07-29T11:30:48;24.80;99.90
4564;DHT22;2294;51.818;8.484;2022-07-29T11:33:28;24.40;99.90
4564;DHT22;2294;51.818;8.484;2022-07-29T11:36:08;24.90;99.90
4564;DHT22;2294;51.818;8.484;2022-07-29T11:38:36;25.50;99.90
4564;DHT22;2294;51.818;8.484;2022-07-29T11:41:22;25.50;99.90
4564;DHT22;2294;51.818;8.484;2022-07-29T11:43:51;25.70;99.90
4564;DHT22;2294;51.818;8.484;2022-07-29T11:46:43;26.50;99.90
4564;DHT22;2294;51.818;8.484;2022-07-29T11:49:11;26.40;99.90
4564;DHT22;2294;51.818;8.484;2022-07-29T11:51:39;26.30;99.90
4564;DHT22;2294;51.818;8.484;2022-07-29T11:54:10;26.20;99.90
4564;DHT22;2294;51.818;8.484;2022-07-29T11:56:41;26.10;99.90
4564;DHT22;2294;51.818;8.484;2022-07-29T11:59:11;25.70;99.90
4564;DHT22;2294;51.818;8.484;2022-07-29T12:01:52;25.90;99.90
4564;DHT22;2294;51.818;8.484;2022-07-29T12:04:19;26.30;99.90
4564;DHT22;2294;51.818;8.484;2022-07-29T12:06:49;26.40;99.90
4564;DHT22;2294;51.818;8.484;2022-07-29T12:09:17;26.20;99.90
4564;DHT22;2294;51.818;8.484;2022-07-29T12:11:45;26.10;99.90
4564;DHT22;2294;51.818;8.484;2022-07-29T12:14:28;26.20;99.90
4564;DHT22;2294;51.818;8.484;2022-07-29T12:16:56;26.50;99.90
4564;DHT22;2294;51.818;8.484;2022-07-29T12:19:23;26.00;99.90
4564;DHT22;2294;51.818;8.484;2022-07-29T12:21:51;25.90;99.90
4564;DHT22;2294;51.818;8.484;2022-07-29T12:24:19;25.70;99.90
4564;DHT22;2294;51.818;8.484;2022-07-29T12:26:51;25.90;99.90
4564;DHT22;2294;51.818;8.484;2022-07-29T12:29:18;26.20;99.90
4564;DHT22;2294;51.818;8.484;2022-07-29T12:31:46;26.40;99.90
4564;DHT22;2294;51.818;8.484;2022-07-29T12:34:15;26.40;99.90
4564;DHT22;2294;51.818;8.484;2022-07-29T12:36:43;26.30;99.90
4564;DHT22;2294;51.818;8.484;2022-07-29T12:39:10;26.80;99.90
4564;DHT22;2294;51.818;8.484;2022-07-29T12:41:38;27.10;99.90
4564;DHT22;2294;51.818;8.484;2022-07-29T12:44:06;27.20;99.90
4564;DHT22;2294;51.818;8.484;2022-07-29T12:46:33;26.90;99.90
4564;DHT22;2294;51.818;8.484;2022-07-29T12:49:00;27.00;99.90
4564;DHT22;2294;51.818;8.484;2022-07-29T12:51:32;27.60;99.90
4564;DHT22;2294;51.818;8.484;2022-07-29T12:54:05;26.80;99.90
4564;DHT22;2294;51.818;8.484;2022-07-29T12:56:32;27.30;99.90
4564;DHT22;2294;51.818;8.484;2022-07-29T12:59:00;27.40;99.90
4564;DHT22;2294;51.818;8.484;2022-07-29T13:01:38;26.90;99.90
4564;DHT22;2294;51.818;8.484;2022-07-29T13:04:05;26.90;99.90
4564;DHT22;2294;51.818;8.484;2022-07-29T13:06:37;28.10;99.90
4564;DHT22;2294;51.818;8.484;2022-07-29T13:09:08;28.00;99.90
4564;DHT22;2294;51.818;8.484;2022-07-29T13:11:38;28.00;99.90
4564;DHT22;2294;51.818;8.484;2022-07-29T13:14:06;27.60;99.90
4564;DHT22;2294;51.818;8.484;2022-07-29T13:16:34;27.90;99.90
4564;DHT22;2294;51.818;8.484;2022-07-29T13:19:10;27.60;99.90
4564;DHT22;2294;51.818;8.484;2022-07-29T13:21:38;27.90;99.90
4564;DHT22;2294;51.818;8.484;2022-07-29T13:24:06;28.30;99.90
4564;DHT22;2294;51.818;8.484;2022-07-29T13:26:33;28.50;99.90
4564;DHT22;2294;51.818;8.484;2022-07-29T13:29:01;28.20;99.90
4564;DHT22;2294;51.818;8.484;2022-07-29T13:31:28;28.10;99.90
4564;DHT22;2294;51.818;8.484;2022-07-29T13:33:55;27.40;99.90
4564;DHT22;2294;51.818;8.484;2022-07-29T13:36:23;27.20;99.90
4564;DHT22;2294;51.818;8.484;2022-07-29T13:38:56;27.40;99.90
4564;DHT22;2294;51.818;8.484;2022-07-29T13:41:23;26.50;99.90
4564;DHT22;2294;51.818;8.484;2022-07-29T13:43:49;26.70;99.90
4564;DHT22;2294;51.818;8.484;2022-07-29T13:46:16;27.00;99.90
4564;DHT22;2294;51.818;8.484;2022-07-29T13:48:43;27.40;99.90
4564;DHT22;2294;51.818;8.484;2022-07-29T13:51:10;27.30;99.90
4564;DHT22;2294;51.818;8.484;2022-07-29T13:53:39;26.70;99.90
4564;DHT22;2294;51.818;8.484;2022-07-29T13:56:05;26.80;99.90
4564;DHT22;2294;51.818;8.484;2022-07-29T13:58:32;26.90;99.90
4564;DHT22;2294;51.818;8.484;2022-07-29T14:01:00;26.90;99.90
4564;DHT22;2294;51.818;8.484;2022-07-29T14:03:27;28.20;99.90
4564;DHT22;2294;51.818;8.484;2022-07-29T14:05:54;27.90;99.90
4564;DHT22;2294;51.818;8.484;2022-07-29T14:08:21;29.00;99.90
4564;DHT22;2294;51.818;8.484;2022-07-29T14:10:50;29.90;99.90
4564;DHT22;2294;51.818;8.484;2022-07-29T14:13:17;29.40;99.90
4564;DHT22;2294;51.818;8.484;2022-07-29T14:15:44;28.90;99.90
4564;DHT22;2294;51.818;8.484;2022-07-29T14:18:11;27.40;99.90
4564;DHT22;2294;51.818;8.484;2022-07-29T14:20:37;26.70;99.90
4564;DHT22;2294;51.818;8.484;2022-07-29T14:23:04;27.20;99.90
4564;DHT22;2294;51.818;8.484;2022-07-29T14:25:31;27.50;99.90
4564;DHT22;2294;51.818;8.484;2022-07-29T14:27:59;27.60;99.90
4564;DHT22;2294;51.818;8.484;2022-07-29T14:30:26;26.90;99.90
4564;DHT22;2294;51.818;8.484;2022-07-29T14:32:53;27.70;99.90
4564;DHT22;2294;51.818;8.484;2022-07-29T14:35:20;27.40;99.90
4564;DHT22;2294;51.818;8.484;2022-07-29T14:37:48;27.00;99.90
4564;DHT22;2294;51.818;8.484;2022-07-29T14:40:15;27.10;99.90
4564;DHT22;2294;51.818;8.484;2022-07-29T14:42:41;26.70;99.90
4564;DHT22;2294;51.818;8.484;2022-07-29T14:45:10;26.60;99.90
4564;DHT22;2294;51.818;8.484;2022-07-29T14:47:38;26.70;99.90
4564;DHT22;2294;51.818;8.484;2022-07-29T14:50:06;26.80;99.90
4564;DHT22;2294;51.818;8.484;2022-07-29T14:52:33;27.00;99.90
4564;DHT22;2294;51.818;8.484;2022-07-29T14:55:00;26.60;99.90
4564;DHT22;2294;51.818;8.484;2022-07-29T14:57:27;26.50;99.90
4564;DHT22;2294;51.818;8.484;2022-07-29T14:59:54;26.70;99.90
4564;DHT22;2294;51.818;8.484;2022-07-29T15:02:22;26.10;99.90
4564;DHT22;2294;51.818;8.484;2022-07-29T15:04:49;26.20;99.90
4564;DHT22;2294;51.818;8.484;2022-07-29T15:07:16;25.90;99.90
4564;DHT22;2294;51.818;8.484;2022-07-29T15:09:43;25.60;99.90
4564;DHT22;2294;51.818;8.484;2022-07-29T15:12:11;25.50;99.90
4564;DHT22;2294;51.818;8.484;2022-07-29T15:14:38;25.70;99.90
4564;DHT22;2294;51.818;8.484;2022-07-29T15:17:05;25.90;99.90
4564;DHT22;2294;51.818;8.484;2022-07-29T15:19:33;26.60;99.90
4564;DHT22;2294;51.818;8.484;2022-07-29T15:22:00;25.50;99.90
4564;DHT22;2294;51.818;8.484;2022-07-29T15:24:27;25.50;99.90
4564;DHT22;2294;51.818;8.484;2022-07-29T15:26:54;25.40;99.90
4564;DHT22;2294;51.818;8.484;2022-07-29T15:29:21;25.10;99.90
4564;DHT22;2294;51.818;8.484;2022-07-29T15:31:48;25.00;99.90
4564;DHT22;2294;51.818;8.484;2022-07-29T15:34:15;25.00;99.90
4564;DHT22;2294;51.818;8.484;2022-07-29T15:36:43;25.00;99.90
4564;DHT22;2294;51.818;8.484;2022-07-29T15:39:10;24.90;99.90
4564;DHT22;2294;51.818;8.484;2022-07-29T15:41:37;25.00;99.90
4564;DHT22;2294;51.818;8.484;2022-07-29T15:44:04;24.80;99.90
4564;DHT22;2294;51.818;8.484;2022-07-29T15:46:31;24.80;99.90
4564;DHT22;2294;51.818;8.484;2022-07-29T15:49:15;24.70;99.90
4564;DHT22;2294;51.818;8.484;2022-07-29T15:51:44;24.60;99.90
4564;DHT22;2294;51.818;8.484;2022-07-29T15:54:10;24.50;99.90
4564;DHT22;2294;51.818;8.484;2022-07-29T15:56:38;24.40;99.90
4564;DHT22;2294;51.818;8.484;2022-07-29T15:59:05;24.30;99.90
4564;DHT22;2294;51.818;8.484;2022-07-29T16:01:31;24.30;99.90
4564;DHT22;2294;51.818;8.484;2022-07-29T16:03:58;24.20;99.90
4564;DHT22;2294;51.818;8.484;2022-07-29T16:06:25;24.10;99.90
4564;DHT22;2294;51.818;8.484;2022-07-29T16:08:54;24.20;99.90
4564;DHT22;2294;51.818;8.484;2022-07-29T16:11:21;24.20;99.90
4564;DHT22;2294;51.818;8.484;2022-07-29T16:13:48;24.10;99.90
4564;DHT22;2294;51.818;8.484;2022-07-29T16:16:15;24.10;99.90